KBHB

Hancock County-Bar Harbor Airport

Bar Harbor, Maine, USA
KBHB 170535Z 1706/1806 29008KT 4SM -SN SCT010 BKN045 FM170700 28008KT P6SM SCT250 FM171900 28009KT P6SM SCT030 FM172100 28008KT P6SM BKN040 FM180500 30008KT P6SM FEW250
Issued Valid From Valid To
Nov-17 @ 05:35 UTC
(4 hours ago)
Nov-17 @ 06:00 UTC
(3 hours ago)
Nov-18 @ 06:00 UTC
(in 21 hours)
Expired Click to View Nov-17 @ 06:00 to Nov-17 @ 07:00
KBHB 170535Z 1706/1806 29008KT 4SM -SN SCT010 BKN045
Wind Visibility Clouds Conditions
290° at 8 knots 4 miles
  • Scattered at 1,000' AGL
  • Broken at 4,500' AGL
  • Light Snow
From Nov-17 @ 07:00 to Nov-17 @ 19:00
FM170700 28008KT P6SM SCT250
Wind Visibility Clouds
280° at 8 knots Greater than 6 miles
  • Scattered at 25,000' AGL
From Nov-17 @ 19:00 to Nov-17 @ 21:00
FM171900 28009KT P6SM SCT030
Wind Visibility Clouds
280° at 9 knots Greater than 6 miles
  • Scattered at 3,000' AGL
From Nov-17 @ 21:00 to Nov-18 @ 05:00
FM172100 28008KT P6SM BKN040
Wind Visibility Clouds
280° at 8 knots Greater than 6 miles
  • Broken at 4,000' AGL
From Nov-18 @ 05:00 to Nov-18 @ 06:00
FM180500 30008KT P6SM FEW250
Wind Visibility Clouds
300° at 8 knots Greater than 6 miles
  • Few at 25,000' AGL
KBHB 170535Z 1706/1806 29008KT 4SM -SN SCT010 BKN045 FM170700 28008KT P6SM SCT250 FM171900 28009KT P6SM SCT030 FM172100 28008KT P6SM BKN040 FM180500 30008KT P6SM FEW250
Issued Nov-17 @ 05:35 UTC
(4 hours ago)
Valid From Nov-17 @ 06:00 UTC
(3 hours ago)
Valid To Nov-18 @ 06:00 UTC
(in 21 hours)
Nov-17 @ 06:00 - Nov-17 @ 07:00
Wind Visibility
290° at 8 knots 4 miles
Clouds
  • Scattered at 1,000' AGL
  • Broken at 4,500' AGL
Conditions
  • Light Snow
From Nov-17 @ 07:00 - Nov-17 @ 19:00
Wind Visibility
280° at 8 knots Greater than 6 miles
Clouds
  • Scattered at 25,000' AGL
From Nov-17 @ 19:00 - Nov-17 @ 21:00
Wind Visibility
280° at 9 knots Greater than 6 miles
Clouds
  • Scattered at 3,000' AGL
From Nov-17 @ 21:00 - Nov-18 @ 05:00
Wind Visibility
280° at 8 knots Greater than 6 miles
Clouds
  • Broken at 4,000' AGL
From Nov-18 @ 05:00 - Nov-18 @ 06:00
Wind Visibility
300° at 8 knots Greater than 6 miles
Clouds
  • Few at 25,000' AGL